sensor_id;sensor_type;location;lat;lon;timestamp;pressure;altitude;pressure_sealevel;temperature;humidity
34065;BME280;20339;49.754;20.158;2023-04-22T00:02:20;96553.39;;;6.48;60.83
34065;BME280;20339;49.754;20.158;2023-04-22T00:04:48;96553.55;;;6.43;60.90
34065;BME280;20339;49.754;20.158;2023-04-22T00:07:16;96552.77;;;6.50;60.63
34065;BME280;20339;49.754;20.158;2023-04-22T00:09:43;96555.02;;;6.57;60.47
34065;BME280;20339;49.754;20.158;2023-04-22T00:12:11;96553.02;;;6.59;60.49
34065;BME280;20339;49.754;20.158;2023-04-22T00:14:38;96552.83;;;6.65;60.39
34065;BME280;20339;49.754;20.158;2023-04-22T00:17:05;96553.21;;;6.69;60.21
34065;BME280;20339;49.754;20.158;2023-04-22T00:19:33;96552.52;;;6.69;60.42
34065;BME280;20339;49.754;20.158;2023-04-22T00:22:00;96550.74;;;6.62;60.55
34065;BME280;20339;49.754;20.158;2023-04-22T00:24:28;96551.61;;;6.49;61.10
34065;BME280;20339;49.754;20.158;2023-04-22T00:26:55;96550.61;;;6.43;61.14
34065;BME280;20339;49.754;20.158;2023-04-22T00:29:23;96552.80;;;6.47;60.91
34065;BME280;20339;49.754;20.158;2023-04-22T00:31:51;96546.61;;;6.49;60.91
34065;BME280;20339;49.754;20.158;2023-04-22T00:34:21;96546.98;;;6.45;60.97
34065;BME280;20339;49.754;20.158;2023-04-22T00:36:48;96544.92;;;6.43;61.10
34065;BME280;20339;49.754;20.158;2023-04-22T00:39:16;96545.91;;;6.40;61.26
34065;BME280;20339;49.754;20.158;2023-04-22T00:41:43;96542.63;;;6.38;61.57
34065;BME280;20339;49.754;20.158;2023-04-22T00:44:12;96544.45;;;6.34;61.55
34065;BME280;20339;49.754;20.158;2023-04-22T00:46:39;96543.16;;;6.33;61.62
34065;BME280;20339;49.754;20.158;2023-04-22T00:49:06;96544.19;;;6.28;61.61
34065;BME280;20339;49.754;20.158;2023-04-22T00:51:34;96538.56;;;6.21;61.80
34065;BME280;20339;49.754;20.158;2023-04-22T00:54:01;96538.46;;;6.16;61.81
34065;BME280;20339;49.754;20.158;2023-04-22T00:56:30;96535.77;;;6.17;61.77
34065;BME280;20339;49.754;20.158;2023-04-22T00:58:57;96534.98;;;6.21;61.86
34065;BME280;20339;49.754;20.158;2023-04-22T01:01:24;96535.73;;;6.21;62.15
34065;BME280;20339;49.754;20.158;2023-04-22T01:03:52;96534.40;;;6.17;62.06
34065;BME280;20339;49.754;20.158;2023-04-22T01:06:19;96538.06;;;6.19;61.93
34065;BME280;20339;49.754;20.158;2023-04-22T01:08:48;96536.21;;;6.18;62.21
34065;BME280;20339;49.754;20.158;2023-04-22T01:11:15;96534.34;;;6.15;62.46
34065;BME280;20339;49.754;20.158;2023-04-22T01:13:42;96535.88;;;6.16;62.48
34065;BME280;20339;49.754;20.158;2023-04-22T01:16:09;96536.77;;;6.22;62.26
34065;BME280;20339;49.754;20.158;2023-04-22T01:18:37;96535.91;;;6.27;62.12
34065;BME280;20339;49.754;20.158;2023-04-22T01:21:04;96537.86;;;6.28;61.98
34065;BME280;20339;49.754;20.158;2023-04-22T01:23:32;96536.98;;;6.31;61.95
34065;BME280;20339;49.754;20.158;2023-04-22T01:26:00;96537.55;;;6.28;62.03
34065;BME280;20339;49.754;20.158;2023-04-22T01:28:27;96539.13;;;6.29;61.98
34065;BME280;20339;49.754;20.158;2023-04-22T01:30:55;96542.88;;;6.30;62.18
34065;BME280;20339;49.754;20.158;2023-04-22T01:33:22;96543.45;;;6.29;62.24
34065;BME280;20339;49.754;20.158;2023-04-22T01:35:49;96542.58;;;6.33;62.29
34065;BME280;20339;49.754;20.158;2023-04-22T01:38:17;96541.54;;;6.33;62.26
34065;BME280;20339;49.754;20.158;2023-04-22T01:40:44;96547.19;;;6.29;62.40
34065;BME280;20339;49.754;20.158;2023-04-22T01:43:11;96542.27;;;6.23;62.37
34065;BME280;20339;49.754;20.158;2023-04-22T01:45:38;96538.88;;;6.17;62.38
34065;BME280;20339;49.754;20.158;2023-04-22T01:48:05;96543.13;;;6.14;62.69
34065;BME280;20339;49.754;20.158;2023-04-22T01:50:32;96543.02;;;6.13;62.80
34065;BME280;20339;49.754;20.158;2023-04-22T01:53:00;96543.31;;;6.10;62.85
34065;BME280;20339;49.754;20.158;2023-04-22T01:55:27;96540.21;;;6.10;62.71
34065;BME280;20339;49.754;20.158;2023-04-22T01:57:54;96540.27;;;6.06;62.86
34065;BME280;20339;49.754;20.158;2023-04-22T02:00:21;96541.34;;;6.01;63.13
34065;BME280;20339;49.754;20.158;2023-04-22T02:02:49;96540.17;;;6.00;63.19
34065;BME280;20339;49.754;20.158;2023-04-22T02:05:16;96537.63;;;5.92;63.41
34065;BME280;20339;49.754;20.158;2023-04-22T02:07:43;96533.91;;;5.86;63.64
34065;BME280;20339;49.754;20.158;2023-04-22T02:10:11;96533.66;;;5.80;63.83
34065;BME280;20339;49.754;20.158;2023-04-22T02:12:38;96532.93;;;5.71;64.05
34065;BME280;20339;49.754;20.158;2023-04-22T02:15:06;96532.11;;;5.65;64.17
34065;BME280;20339;49.754;20.158;2023-04-22T02:17:33;96532.02;;;5.67;64.18
34065;BME280;20339;49.754;20.158;2023-04-22T02:20:01;96528.42;;;5.74;64.18
34065;BME280;20339;49.754;20.158;2023-04-22T02:22:29;96523.73;;;5.84;64.00
34065;BME280;20339;49.754;20.158;2023-04-22T02:24:57;96527.28;;;5.92;64.06
34065;BME280;20339;49.754;20.158;2023-04-22T02:27:24;96523.98;;;5.94;63.91
34065;BME280;20339;49.754;20.158;2023-04-22T02:29:51;96526.98;;;5.97;63.89
34065;BME280;20339;49.754;20.158;2023-04-22T02:32:18;96524.75;;;6.00;63.49
34065;BME280;20339;49.754;20.158;2023-04-22T02:34:46;96526.08;;;6.02;63.57
34065;BME280;20339;49.754;20.158;2023-04-22T02:37:14;96525.91;;;6.05;63.52
34065;BME280;20339;49.754;20.158;2023-04-22T02:39:41;96525.73;;;6.03;63.41
34065;BME280;20339;49.754;20.158;2023-04-22T02:42:08;96527.02;;;5.93;63.87
34065;BME280;20339;49.754;20.158;2023-04-22T02:44:35;96530.05;;;5.82;63.93
34065;BME280;20339;49.754;20.158;2023-04-22T02:47:02;96529.96;;;5.75;63.98
34065;BME280;20339;49.754;20.158;2023-04-22T02:49:30;96530.73;;;5.71;64.15
34065;BME280;20339;49.754;20.158;2023-04-22T02:51:57;96530.52;;;5.72;64.36
34065;BME280;20339;49.754;20.158;2023-04-22T02:54:24;96527.64;;;5.74;64.16
34065;BME280;20339;49.754;20.158;2023-04-22T02:56:51;96527.34;;;5.75;64.19
34065;BME280;20339;49.754;20.158;2023-04-22T02:59:18;96526.95;;;5.73;64.22
34065;BME280;20339;49.754;20.158;2023-04-22T03:01:45;96527.09;;;5.69;64.16
34065;BME280;20339;49.754;20.158;2023-04-22T03:04:13;96525.95;;;5.65;64.26
34065;BME280;20339;49.754;20.158;2023-04-22T03:06:40;96530.42;;;5.62;64.57
34065;BME280;20339;49.754;20.158;2023-04-22T03:09:07;96528.10;;;5.65;64.57
34065;BME280;20339;49.754;20.158;2023-04-22T03:11:34;96526.95;;;5.66;64.40
34065;BME280;20339;49.754;20.158;2023-04-22T03:14:02;96528.36;;;5.64;64.48
34065;BME280;20339;49.754;20.158;2023-04-22T03:16:29;96530.69;;;5.63;64.68
34065;BME280;20339;49.754;20.158;2023-04-22T03:18:56;96527.23;;;5.67;64.65
34065;BME280;20339;49.754;20.158;2023-04-22T03:21:23;96531.68;;;5.77;64.42
34065;BME280;20339;49.754;20.158;2023-04-22T03:23:50;96530.00;;;5.83;64.16
34065;BME280;20339;49.754;20.158;2023-04-22T03:26:17;96530.89;;;5.93;63.94
34065;BME280;20339;49.754;20.158;2023-04-22T03:28:45;96530.61;;;6.09;63.91
34065;BME280;20339;49.754;20.158;2023-04-22T03:31:12;96526.96;;;6.14;63.48
34065;BME280;20339;49.754;20.158;2023-04-22T03:33:40;96525.95;;;6.19;63.52
34065;BME280;20339;49.754;20.158;2023-04-22T03:36:07;96530.97;;;6.28;63.37
34065;BME280;20339;49.754;20.158;2023-04-22T03:38:34;96534.77;;;6.30;63.38
34065;BME280;20339;49.754;20.158;2023-04-22T03:41:01;96536.24;;;6.30;63.39
34065;BME280;20339;49.754;20.158;2023-04-22T03:43:29;96536.92;;;6.29;63.29
34065;BME280;20339;49.754;20.158;2023-04-22T03:45:57;96539.88;;;6.35;63.03
34065;BME280;20339;49.754;20.158;2023-04-22T03:48:25;96537.98;;;6.36;63.00
34065;BME280;20339;49.754;20.158;2023-04-22T03:50:52;96542.31;;;6.36;63.11
34065;BME280;20339;49.754;20.158;2023-04-22T03:53:19;96542.20;;;6.34;62.91
34065;BME280;20339;49.754;20.158;2023-04-22T03:55:46;96540.36;;;6.36;63.02
34065;BME280;20339;49.754;20.158;2023-04-22T03:58:14;96541.99;;;6.37;62.87
34065;BME280;20339;49.754;20.158;2023-04-22T04:00:41;96546.96;;;6.40;63.05
34065;BME280;20339;49.754;20.158;2023-04-22T04:03:08;96547.80;;;6.48;62.98
34065;BME280;20339;49.754;20.158;2023-04-22T04:05:36;96548.27;;;6.54;62.89
34065;BME280;20339;49.754;20.158;2023-04-22T04:08:03;96547.70;;;6.58;62.81
34065;BME280;20339;49.754;20.158;2023-04-22T04:10:30;96552.11;;;6.62;62.80
34065;BME280;20339;49.754;20.158;2023-04-22T04:12:58;96552.71;;;6.65;62.69
34065;BME280;20339;49.754;20.158;2023-04-22T04:15:25;96552.87;;;6.74;62.46
34065;BME280;20339;49.754;20.158;2023-04-22T04:17:52;96551.10;;;6.86;62.29
34065;BME280;20339;49.754;20.158;2023-04-22T04:20:22;96552.52;;;6.97;62.12
34065;BME280;20339;49.754;20.158;2023-04-22T04:22:49;96554.59;;;7.11;62.15
34065;BME280;20339;49.754;20.158;2023-04-22T04:25:16;96556.73;;;7.27;61.78
34065;BME280;20339;49.754;20.158;2023-04-22T04:27:46;96554.98;;;7.64;61.44
34065;BME280;20339;49.754;20.158;2023-04-22T04:30:14;96552.33;;;8.25;61.06
34065;BME280;20339;49.754;20.158;2023-04-22T04:32:42;96554.54;;;8.91;60.37
34065;BME280;20339;49.754;20.158;2023-04-22T04:35:11;96552.39;;;9.44;58.74
34065;BME280;20339;49.754;20.158;2023-04-22T04:37:39;96554.91;;;9.61;57.47
34065;BME280;20339;49.754;20.158;2023-04-22T04:40:08;96554.38;;;9.61;57.04
34065;BME280;20339;49.754;20.158;2023-04-22T04:42:37;96554.57;;;9.73;56.71
34065;BME280;20339;49.754;20.158;2023-04-22T04:45:05;96557.33;;;9.98;56.06
34065;BME280;20339;49.754;20.158;2023-04-22T04:47:33;96560.38;;;10.17;55.19
34065;BME280;20339;49.754;20.158;2023-04-22T04:50:00;96558.95;;;10.53;54.89
34065;BME280;20339;49.754;20.158;2023-04-22T04:52:29;96563.02;;;11.13;54.66
34065;BME280;20339;49.754;20.158;2023-04-22T04:55:04;96564.65;;;11.81;53.58
34065;BME280;20339;49.754;20.158;2023-04-22T04:57:31;96566.46;;;11.97;51.72
34065;BME280;20339;49.754;20.158;2023-04-22T04:59:59;96560.57;;;12.28;51.52
34065;BME280;20339;49.754;20.158;2023-04-22T05:02:27;96559.23;;;12.88;51.21
34065;BME280;20339;49.754;20.158;2023-04-22T05:04:54;96562.38;;;13.39;50.20
34065;BME280;20339;49.754;20.158;2023-04-22T05:07:22;96559.94;;;13.74;49.91
34065;BME280;20339;49.754;20.158;2023-04-22T05:09:49;96562.98;;;14.14;49.13
34065;BME280;20339;49.754;20.158;2023-04-22T05:12:16;96564.67;;;14.48;47.11
34065;BME280;20339;49.754;20.158;2023-04-22T05:14:44;96563.32;;;14.30;46.28
34065;BME280;20339;49.754;20.158;2023-04-22T05:17:12;96563.56;;;14.47;45.65
34065;BME280;20339;49.754;20.158;2023-04-22T05:19:40;96562.86;;;14.85;45.35
34065;BME280;20339;49.754;20.158;2023-04-22T05:22:07;96565.84;;;15.56;44.99
34065;BME280;20339;49.754;20.158;2023-04-22T05:24:34;96563.77;;;16.55;44.36
34065;BME280;20339;49.754;20.158;2023-04-22T05:27:01;96559.17;;;17.42;42.66
34065;BME280;20339;49.754;20.158;2023-04-22T05:29:29;96560.28;;;18.23;41.67
34065;BME280;20339;49.754;20.158;2023-04-22T05:31:57;96556.09;;;18.82;40.61
34065;BME280;20339;49.754;20.158;2023-04-22T05:34:24;96557.48;;;19.58;39.78
34065;BME280;20339;49.754;20.158;2023-04-22T05:36:52;96557.02;;;20.44;39.23
34065;BME280;20339;49.754;20.158;2023-04-22T05:39:19;96558.30;;;20.79;36.62
34065;BME280;20339;49.754;20.158;2023-04-22T05:41:46;96559.15;;;20.97;37.00
34065;BME280;20339;49.754;20.158;2023-04-22T05:44:16;96561.45;;;21.12;34.93
34065;BME280;20339;49.754;20.158;2023-04-22T05:46:43;96562.52;;;21.14;35.23
34065;BME280;20339;49.754;20.158;2023-04-22T05:49:11;96558.61;;;21.69;34.82
34065;BME280;20339;49.754;20.158;2023-04-22T05:51:38;96559.46;;;22.18;34.16
34065;BME280;20339;49.754;20.158;2023-04-22T05:54:06;96559.70;;;22.29;33.27
34065;BME280;20339;49.754;20.158;2023-04-22T05:56:33;96560.39;;;22.48;33.23
34065;BME280;20339;49.754;20.158;2023-04-22T05:59:01;96558.40;;;22.57;32.24
34065;BME280;20339;49.754;20.158;2023-04-22T06:01:28;96557.14;;;22.76;32.61
34065;BME280;20339;49.754;20.158;2023-04-22T06:03:56;96558.02;;;23.34;32.34
34065;BME280;20339;49.754;20.158;2023-04-22T06:06:24;96558.39;;;23.57;31.21
34065;BME280;20339;49.754;20.158;2023-04-22T06:08:53;96561.52;;;23.69;31.15
34065;BME280;20339;49.754;20.158;2023-04-22T06:11:21;96561.20;;;24.00;31.14
34065;BME280;20339;49.754;20.158;2023-04-22T06:13:49;96564.41;;;24.26;30.72
34065;BME280;20339;49.754;20.158;2023-04-22T06:16:17;96565.20;;;24.33;30.46
34065;BME280;20339;49.754;20.158;2023-04-22T06:18:45;96567.49;;;24.77;30.10
34065;BME280;20339;49.754;20.158;2023-04-22T06:21:13;96564.39;;;25.48;30.04
34065;BME280;20339;49.754;20.158;2023-04-22T06:23:41;96564.80;;;25.91;29.08
34065;BME280;20339;49.754;20.158;2023-04-22T06:26:09;96564.99;;;26.27;29.17
34065;BME280;20339;49.754;20.158;2023-04-22T06:28:38;96560.25;;;26.86;28.53
34065;BME280;20339;49.754;20.158;2023-04-22T06:31:05;96564.62;;;26.92;27.64
34065;BME280;20339;49.754;20.158;2023-04-22T06:33:32;96565.92;;;27.11;27.64
34065;BME280;20339;49.754;20.158;2023-04-22T06:36:00;96564.86;;;27.61;27.35
34065;BME280;20339;49.754;20.158;2023-04-22T06:38:28;96564.27;;;28.31;27.13
34065;BME280;20339;49.754;20.158;2023-04-22T06:40:55;96571.95;;;28.98;27.15
34065;BME280;20339;49.754;20.158;2023-04-22T06:43:23;96567.30;;;29.51;26.85
34065;BME280;20339;49.754;20.158;2023-04-22T06:45:50;96571.73;;;30.06;26.51
34065;BME280;20339;49.754;20.158;2023-04-22T06:48:18;96567.73;;;30.82;25.85
34065;BME280;20339;49.754;20.158;2023-04-22T06:50:48;96571.04;;;31.09;24.99
34065;BME280;20339;49.754;20.158;2023-04-22T06:53:18;96569.95;;;31.46;25.26
34065;BME280;20339;49.754;20.158;2023-04-22T06:55:48;96565.27;;;31.89;24.41
34065;BME280;20339;49.754;20.158;2023-04-22T06:58:15;96566.66;;;31.70;24.34
34065;BME280;20339;49.754;20.158;2023-04-22T07:00:43;96565.92;;;32.37;24.31
34065;BME280;20339;49.754;20.158;2023-04-22T07:03:10;96567.85;;;32.97;23.89
34065;BME280;20339;49.754;20.158;2023-04-22T07:05:38;96563.91;;;33.32;23.55
34065;BME280;20339;49.754;20.158;2023-04-22T07:08:05;96568.58;;;33.74;23.13
34065;BME280;20339;49.754;20.158;2023-04-22T07:10:33;96567.29;;;34.32;23.25
34065;BME280;20339;49.754;20.158;2023-04-22T07:13:01;96568.20;;;35.32;22.74
34065;BME280;20339;49.754;20.158;2023-04-22T07:15:28;96561.32;;;36.08;21.89
34065;BME280;20339;49.754;20.158;2023-04-22T07:17:55;96563.91;;;35.55;19.76
34065;BME280;20339;49.754;20.158;2023-04-22T07:20:23;96566.30;;;34.34;19.79
34065;BME280;20339;49.754;20.158;2023-04-22T07:22:50;96566.22;;;33.99;19.84
34065;BME280;20339;49.754;20.158;2023-04-22T07:25:18;96565.30;;;34.27;20.78
34065;BME280;20339;49.754;20.158;2023-04-22T07:27:46;96560.40;;;35.02;20.52
34065;BME280;20339;49.754;20.158;2023-04-22T07:30:14;96563.66;;;35.59;20.41
34065;BME280;20339;49.754;20.158;2023-04-22T07:32:41;96562.58;;;36.11;19.73
34065;BME280;20339;49.754;20.158;2023-04-22T07:35:09;96562.36;;;35.14;17.73
34065;BME280;20339;49.754;20.158;2023-04-22T07:37:39;96561.64;;;34.63;19.13
34065;BME280;20339;49.754;20.158;2023-04-22T07:40:07;96560.80;;;34.40;18.27
34065;BME280;20339;49.754;20.158;2023-04-22T07:42:37;96563.55;;;34.10;19.03
34065;BME280;20339;49.754;20.158;2023-04-22T07:45:06;96558.75;;;34.99;19.41
34065;BME280;20339;49.754;20.158;2023-04-22T07:47:33;96557.70;;;35.20;17.88
34065;BME280;20339;49.754;20.158;2023-04-22T07:50:01;96556.20;;;35.03;19.10
34065;BME280;20339;49.754;20.158;2023-04-22T07:52:29;96557.42;;;35.40;17.68
34065;BME280;20339;49.754;20.158;2023-04-22T07:54:56;96557.15;;;34.90;17.88
34065;BME280;20339;49.754;20.158;2023-04-22T07:57:24;96559.32;;;34.50;16.82
34065;BME280;20339;49.754;20.158;2023-04-22T07:59:51;96558.12;;;33.28;17.25
34065;BME280;20339;49.754;20.158;2023-04-22T08:02:18;96561.15;;;33.46;18.05
34065;BME280;20339;49.754;20.158;2023-04-22T08:04:46;96562.86;;;33.57;17.69
34065;BME280;20339;49.754;20.158;2023-04-22T08:07:14;96559.97;;;34.17;19.11
34065;BME280;20339;49.754;20.158;2023-04-22T08:09:41;96556.36;;;34.90;17.15
34065;BME280;20339;49.754;20.158;2023-04-22T08:12:09;96554.76;;;33.63;16.68
34065;BME280;20339;49.754;20.158;2023-04-22T08:14:36;96553.06;;;32.80;17.88
34065;BME280;20339;49.754;20.158;2023-04-22T08:17:04;96552.91;;;33.95;19.17
34065;BME280;20339;49.754;20.158;2023-04-22T08:19:31;96553.82;;;35.49;18.20
34065;BME280;20339;49.754;20.158;2023-04-22T08:21:58;96555.33;;;35.80;16.75
34065;BME280;20339;49.754;20.158;2023-04-22T08:24:26;96557.77;;;34.30;15.52
34065;BME280;20339;49.754;20.158;2023-04-22T08:26:53;96555.76;;;32.93;16.61
34065;BME280;20339;49.754;20.158;2023-04-22T08:29:20;96558.40;;;32.54;17.47
34065;BME280;20339;49.754;20.158;2023-04-22T08:31:48;96554.77;;;33.87;18.54
34065;BME280;20339;49.754;20.158;2023-04-22T08:34:15;96555.07;;;35.56;18.40
34065;BME280;20339;49.754;20.158;2023-04-22T08:36:42;96555.06;;;36.89;17.73
34065;BME280;20339;49.754;20.158;2023-04-22T08:39:09;96555.30;;;37.81;16.13
34065;BME280;20339;49.754;20.158;2023-04-22T08:41:37;96557.83;;;35.96;13.61
34065;BME280;20339;49.754;20.158;2023-04-22T08:44:04;96558.96;;;34.03;15.94
34065;BME280;20339;49.754;20.158;2023-04-22T08:46:32;96560.13;;;34.21;15.81
34065;BME280;20339;49.754;20.158;2023-04-22T08:48:59;96564.54;;;34.12;16.78
34065;BME280;20339;49.754;20.158;2023-04-22T08:51:29;96563.27;;;34.24;15.47
34065;BME280;20339;49.754;20.158;2023-04-22T08:53:59;96564.27;;;32.94;14.45
34065;BME280;20339;49.754;20.158;2023-04-22T08:56:26;96560.73;;;31.60;15.51
34065;BME280;20339;49.754;20.158;2023-04-22T08:58:54;96560.63;;;30.68;15.95
34065;BME280;20339;49.754;20.158;2023-04-22T09:01:22;96560.89;;;30.27;16.76
34065;BME280;20339;49.754;20.158;2023-04-22T09:03:50;96558.79;;;30.10;17.79
34065;BME280;20339;49.754;20.158;2023-04-22T09:06:18;96554.46;;;30.85;18.04
34065;BME280;20339;49.754;20.158;2023-04-22T09:08:47;96556.00;;;30.11;16.78
34065;BME280;20339;49.754;20.158;2023-04-22T09:11:16;96554.91;;;28.57;17.96
34065;BME280;20339;49.754;20.158;2023-04-22T09:13:43;96548.65;;;28.42;20.30
34065;BME280;20339;49.754;20.158;2023-04-22T09:16:10;96546.29;;;29.10;20.13
34065;BME280;20339;49.754;20.158;2023-04-22T09:18:41;96548.80;;;28.93;19.94
34065;BME280;20339;49.754;20.158;2023-04-22T09:21:08;96542.89;;;27.83;20.40
34065;BME280;20339;49.754;20.158;2023-04-22T09:26:10;96543.37;;;26.07;21.56
34065;BME280;20339;49.754;20.158;2023-04-22T09:28:37;96540.41;;;24.81;22.09
34065;BME280;20339;49.754;20.158;2023-04-22T09:31:14;96536.95;;;23.47;22.90
34065;BME280;20339;49.754;20.158;2023-04-22T09:33:45;96540.73;;;22.49;24.27
34065;BME280;20339;49.754;20.158;2023-04-22T09:36:13;96535.86;;;21.58;25.05
34065;BME280;20339;49.754;20.158;2023-04-22T09:38:40;96529.44;;;21.34;25.37
34065;BME280;20339;49.754;20.158;2023-04-22T09:41:17;96531.31;;;21.17;26.64
34065;BME280;20339;49.754;20.158;2023-04-22T09:43:44;96530.33;;;20.90;26.49
34065;BME280;20339;49.754;20.158;2023-04-22T09:46:12;96535.05;;;20.07;27.74
34065;BME280;20339;49.754;20.158;2023-04-22T09:48:42;96533.03;;;19.64;27.39
34065;BME280;20339;49.754;20.158;2023-04-22T09:51:14;96528.45;;;19.93;28.20
34065;BME280;20339;49.754;20.158;2023-04-22T09:53:42;96517.52;;;20.37;27.46
34065;BME280;20339;49.754;20.158;2023-04-22T09:56:09;96518.94;;;20.42;27.45
34065;BME280;20339;49.754;20.158;2023-04-22T09:58:38;96515.11;;;20.46;28.15
34065;BME280;20339;49.754;20.158;2023-04-22T10:01:05;96513.95;;;20.22;27.57
34065;BME280;20339;49.754;20.158;2023-04-22T10:03:33;96512.58;;;19.90;27.99
34065;BME280;20339;49.754;20.158;2023-04-22T10:06:01;96511.38;;;19.93;28.82
34065;BME280;20339;49.754;20.158;2023-04-22T10:08:29;96510.30;;;20.21;29.22
34065;BME280;20339;49.754;20.158;2023-04-22T10:10:58;96508.69;;;20.57;29.55
34065;BME280;20339;49.754;20.158;2023-04-22T10:13:25;96507.64;;;20.76;28.62
34065;BME280;20339;49.754;20.158;2023-04-22T10:15:53;96505.34;;;20.36;27.94
34065;BME280;20339;49.754;20.158;2023-04-22T10:18:22;96503.39;;;19.80;28.11
34065;BME280;20339;49.754;20.158;2023-04-22T10:20:51;96498.38;;;19.70;29.07
34065;BME280;20339;49.754;20.158;2023-04-22T10:23:20;96505.90;;;19.64;29.61
34065;BME280;20339;49.754;20.158;2023-04-22T10:25:49;96500.57;;;19.89;29.86
34065;BME280;20339;49.754;20.158;2023-04-22T10:28:19;96500.27;;;20.20;30.32
34065;BME280;20339;49.754;20.158;2023-04-22T10:30:46;96500.17;;;20.35;29.09
34065;BME280;20339;49.754;20.158;2023-04-22T10:36:05;96497.45;;;20.45;28.59
34065;BME280;20339;49.754;20.158;2023-04-22T10:38:33;96501.02;;;20.08;28.42
34065;BME280;20339;49.754;20.158;2023-04-22T10:41:01;96497.16;;;19.67;29.48
34065;BME280;20339;49.754;20.158;2023-04-22T10:43:40;96495.92;;;19.80;30.00
34065;BME280;20339;49.754;20.158;2023-04-22T10:46:07;96491.46;;;19.90;30.35
34065;BME280;20339;49.754;20.158;2023-04-22T10:48:55;96489.40;;;20.24;31.27
34065;BME280;20339;49.754;20.158;2023-04-22T10:51:38;96483.38;;;20.51;30.31
34065;BME280;20339;49.754;20.158;2023-04-22T10:54:05;96484.52;;;20.68;30.51
34065;BME280;20339;49.754;20.158;2023-04-22T10:56:33;96486.75;;;20.81;30.15
34065;BME280;20339;49.754;20.158;2023-04-22T10:59:00;96482.13;;;20.81;29.39
34065;BME280;20339;49.754;20.158;2023-04-22T11:01:41;96482.33;;;20.85;30.39
34065;BME280;20339;49.754;20.158;2023-04-22T11:04:21;96479.02;;;20.98;29.81
34065;BME280;20339;49.754;20.158;2023-04-22T11:09:31;96472.48;;;20.80;28.79
34065;BME280;20339;49.754;20.158;2023-04-22T11:14:41;96472.56;;;20.61;30.10
34065;BME280;20339;49.754;20.158;2023-04-22T11:17:09;96470.09;;;20.76;29.50
34065;BME280;20339;49.754;20.158;2023-04-22T11:19:36;96466.91;;;20.75;29.83
34065;BME280;20339;49.754;20.158;2023-04-22T11:22:04;96462.70;;;20.85;30.45
34065;BME280;20339;49.754;20.158;2023-04-22T11:24:31;96462.77;;;21.01;30.83
34065;BME280;20339;49.754;20.158;2023-04-22T11:27:01;96459.64;;;21.18;31.08
34065;BME280;20339;49.754;20.158;2023-04-22T11:29:29;96455.88;;;21.35;30.78
34065;BME280;20339;49.754;20.158;2023-04-22T11:31:56;96454.47;;;21.18;28.88
34065;BME280;20339;49.754;20.158;2023-04-22T11:34:24;96455.20;;;20.34;28.43
34065;BME280;20339;49.754;20.158;2023-04-22T11:36:52;96456.07;;;19.68;29.57
34065;BME280;20339;49.754;20.158;2023-04-22T11:39:19;96457.69;;;19.43;30.38
34065;BME280;20339;49.754;20.158;2023-04-22T11:41:46;96451.82;;;19.54;30.27
34065;BME280;20339;49.754;20.158;2023-04-22T11:44:14;96452.57;;;19.46;29.53
34065;BME280;20339;49.754;20.158;2023-04-22T11:46:43;96446.64;;;19.43;30.12
34065;BME280;20339;49.754;20.158;2023-04-22T11:49:14;96446.48;;;19.50;30.73
34065;BME280;20339;49.754;20.158;2023-04-22T11:51:52;96446.69;;;19.42;30.99
34065;BME280;20339;49.754;20.158;2023-04-22T11:54:28;96443.77;;;19.60;30.83
34065;BME280;20339;49.754;20.158;2023-04-22T11:56:55;96443.59;;;19.42;31.41
34065;BME280;20339;49.754;20.158;2023-04-22T11:59:23;96439.92;;;19.15;31.48
34065;BME280;20339;49.754;20.158;2023-04-22T12:01:51;96438.23;;;18.87;31.57
34065;BME280;20339;49.754;20.158;2023-04-22T12:04:20;96432.52;;;18.72;31.23
34065;BME280;20339;49.754;20.158;2023-04-22T12:06:48;96433.05;;;18.60;31.41
34065;BME280;20339;49.754;20.158;2023-04-22T12:09:17;96433.80;;;18.64;32.21
34065;BME280;20339;49.754;20.158;2023-04-22T12:11:45;96433.47;;;18.80;32.21
34065;BME280;20339;49.754;20.158;2023-04-22T12:14:12;96438.16;;;18.57;31.39
34065;BME280;20339;49.754;20.158;2023-04-22T12:16:40;96438.91;;;18.43;31.44
34065;BME280;20339;49.754;20.158;2023-04-22T12:19:08;96437.95;;;18.42;32.14
34065;BME280;20339;49.754;20.158;2023-04-22T12:21:35;96432.16;;;18.68;32.37
34065;BME280;20339;49.754;20.158;2023-04-22T12:24:07;96437.90;;;18.99;32.15
34065;BME280;20339;49.754;20.158;2023-04-22T12:26:37;96436.19;;;18.90;32.39
34065;BME280;20339;49.754;20.158;2023-04-22T12:29:04;96436.70;;;19.12;32.05
34065;BME280;20339;49.754;20.158;2023-04-22T12:31:32;96428.42;;;19.33;31.27
34065;BME280;20339;49.754;20.158;2023-04-22T12:34:00;96426.61;;;19.41;31.17
34065;BME280;20339;49.754;20.158;2023-04-22T17:17:41;96325.08;;;18.37;32.84
34065;BME280;20339;49.754;20.158;2023-04-22T17:20:15;96326.14;;;17.95;33.51
34065;BME280;20339;49.754;20.158;2023-04-22T17:22:46;96326.52;;;17.66;34.22
34065;BME280;20339;49.754;20.158;2023-04-22T17:25:17;96329.31;;;17.44;34.82
34065;BME280;20339;49.754;20.158;2023-04-22T17:27:52;96330.22;;;17.22;34.68
34065;BME280;20339;49.754;20.158;2023-04-22T17:30:24;96330.36;;;16.79;34.77
34065;BME280;20339;49.754;20.158;2023-04-22T17:32:55;96331.23;;;16.41;35.32
34065;BME280;20339;49.754;20.158;2023-04-22T17:35:27;96333.52;;;15.98;35.63
34065;BME280;20339;49.754;20.158;2023-04-22T17:37:58;96334.17;;;15.67;35.94
34065;BME280;20339;49.754;20.158;2023-04-22T17:40:30;96334.52;;;15.40;36.51
34065;BME280;20339;49.754;20.158;2023-04-22T17:43:04;96340.52;;;15.16;36.55
34065;BME280;20339;49.754;20.158;2023-04-22T17:45:35;96345.56;;;15.01;37.16
34065;BME280;20339;49.754;20.158;2023-04-22T17:48:06;96348.80;;;15.00;37.55
34065;BME280;20339;49.754;20.158;2023-04-22T17:50:38;96352.05;;;15.00;38.00